Drake, Colorado
Current Conditions -  °F | °C
As of 11:55 PM on Wednesday 22 Oct 2014 (Local Time) from KFNL Reporting Station
Clear Clear  
Wind Chill: 43°   Ceiling: Unl
Heat Index: 46°   Visibility: 10mi
Dew Point: 36°   Wind: 7mph
Humidity: 66%   Direction: 340°NNW
Pressure: 30.16"   Gusts: NA
Location:  40.43°N, 105.34°W
Report Text: KFNL 230555Z AUTO 34006KT 10SM CLR 08/02 A3016 RMK AO1 10170 20080 52007
Loading
Personal Weather Stations






























Interactive Weather Map
Tropical Storm Tracking
New forecast layout! Learn more

10-Day Weather Forecast

Advertisements
Track Severe Weather on mobile